sensor_id;sensor_type;location;lat;lon;timestamp;P1;durP1;ratioP1;P2;durP2;ratioP2
20855;SDS011;63058;49.424;8.420;2023-12-28T00:01:42;6.35;;;3.63;;
20855;SDS011;63058;49.424;8.420;2023-12-28T00:04:24;4.57;;;3.40;;
20855;SDS011;63058;49.424;8.420;2023-12-28T00:07:10;5.53;;;3.63;;
20855;SDS011;63058;49.424;8.420;2023-12-28T00:09:45;5.82;;;3.80;;
20855;SDS011;63058;49.424;8.420;2023-12-28T00:12:19;7.25;;;4.00;;
20855;SDS011;63058;49.424;8.420;2023-12-28T00:14:47;4.88;;;3.83;;
20855;SDS011;63058;49.424;8.420;2023-12-28T00:17:32;6.53;;;4.00;;
20855;SDS011;63058;49.424;8.420;2023-12-28T00:20:07;6.78;;;4.38;;
20855;SDS011;63058;49.424;8.420;2023-12-28T00:22:38;5.88;;;3.90;;
20855;SDS011;63058;49.424;8.420;2023-12-28T00:25:06;5.75;;;3.75;;
20855;SDS011;63058;49.424;8.420;2023-12-28T00:27:35;5.57;;;3.63;;
20855;SDS011;63058;49.424;8.420;2023-12-28T00:30:03;8.45;;;3.88;;
20855;SDS011;63058;49.424;8.420;2023-12-28T00:32:31;5.10;;;3.42;;
20855;SDS011;63058;49.424;8.420;2023-12-28T00:34:57;6.20;;;4.10;;
20855;SDS011;63058;49.424;8.420;2023-12-28T00:37:24;6.68;;;4.00;;
20855;SDS011;63058;49.424;8.420;2023-12-28T00:39:53;5.78;;;4.20;;
20855;SDS011;63058;49.424;8.420;2023-12-28T00:42:19;10.75;;;4.13;;
20855;SDS011;63058;49.424;8.420;2023-12-28T00:44:53;7.47;;;4.32;;
20855;SDS011;63058;49.424;8.420;2023-12-28T00:47:36;6.28;;;3.92;;
20855;SDS011;63058;49.424;8.420;2023-12-28T00:50:08;8.13;;;3.67;;
20855;SDS011;63058;49.424;8.420;2023-12-28T00:52:42;6.28;;;3.88;;
20855;SDS011;63058;49.424;8.420;2023-12-28T00:55:20;7.00;;;4.00;;
20855;SDS011;63058;49.424;8.420;2023-12-28T00:57:51;6.13;;;3.70;;
20855;SDS011;63058;49.424;8.420;2023-12-28T01:00:25;6.32;;;3.63;;
20855;SDS011;63058;49.424;8.420;2023-12-28T01:02:56;5.45;;;3.40;;
20855;SDS011;63058;49.424;8.420;2023-12-28T01:05:25;6.50;;;3.22;;
20855;SDS011;63058;49.424;8.420;2023-12-28T01:07:59;5.38;;;3.38;;
20855;SDS011;63058;49.424;8.420;2023-12-28T01:10:37;5.30;;;3.15;;
20855;SDS011;63058;49.424;8.420;2023-12-28T01:13:05;5.88;;;3.55;;
20855;SDS011;63058;49.424;8.420;2023-12-28T01:15:33;6.28;;;3.75;;
20855;SDS011;63058;49.424;8.420;2023-12-28T01:18:01;4.93;;;3.83;;
20855;SDS011;63058;49.424;8.420;2023-12-28T01:20:36;8.52;;;3.40;;
20855;SDS011;63058;49.424;8.420;2023-12-28T01:23:20;6.75;;;3.58;;
20855;SDS011;63058;49.424;8.420;2023-12-28T01:25:48;5.50;;;3.47;;
20855;SDS011;63058;49.424;8.420;2023-12-28T01:28:15;4.18;;;2.83;;
20855;SDS011;63058;49.424;8.420;2023-12-28T01:30:44;5.30;;;3.15;;
20855;SDS011;63058;49.424;8.420;2023-12-28T01:33:10;4.43;;;3.15;;
20855;SDS011;63058;49.424;8.420;2023-12-28T01:35:44;7.00;;;3.10;;
20855;SDS011;63058;49.424;8.420;2023-12-28T01:38:49;5.22;;;2.97;;
20855;SDS011;63058;49.424;8.420;2023-12-28T01:41:15;4.03;;;2.95;;
20855;SDS011;63058;49.424;8.420;2023-12-28T01:43:46;5.22;;;3.20;;
20855;SDS011;63058;49.424;8.420;2023-12-28T01:46:18;4.28;;;3.15;;
20855;SDS011;63058;49.424;8.420;2023-12-28T01:48:46;4.93;;;3.30;;
20855;SDS011;63058;49.424;8.420;2023-12-28T01:51:14;4.95;;;3.22;;
20855;SDS011;63058;49.424;8.420;2023-12-28T01:53:47;4.03;;;2.60;;
20855;SDS011;63058;49.424;8.420;2023-12-28T01:56:28;4.05;;;2.90;;
20855;SDS011;63058;49.424;8.420;2023-12-28T01:58:54;4.32;;;3.20;;
20855;SDS011;63058;49.424;8.420;2023-12-28T02:01:23;3.50;;;2.60;;
20855;SDS011;63058;49.424;8.420;2023-12-28T02:03:51;4.47;;;2.70;;
20855;SDS011;63058;49.424;8.420;2023-12-28T02:06:20;3.75;;;2.58;;
20855;SDS011;63058;49.424;8.420;2023-12-28T02:08:53;4.22;;;2.53;;
20855;SDS011;63058;49.424;8.420;2023-12-28T02:11:22;3.75;;;2.80;;
20855;SDS011;63058;49.424;8.420;2023-12-28T02:13:53;4.55;;;3.00;;
20855;SDS011;63058;49.424;8.420;2023-12-28T02:16:36;3.22;;;2.53;;
20855;SDS011;63058;49.424;8.420;2023-12-28T02:19:53;5.25;;;2.95;;
20855;SDS011;63058;49.424;8.420;2023-12-28T02:22:15;3.78;;;2.30;;
20855;SDS011;63058;49.424;8.420;2023-12-28T02:25:04;3.63;;;2.53;;
20855;SDS011;63058;49.424;8.420;2023-12-28T02:27:43;5.45;;;3.00;;
20855;SDS011;63058;49.424;8.420;2023-12-28T02:30:14;3.05;;;2.35;;
20855;SDS011;63058;49.424;8.420;2023-12-28T02:35:45;3.47;;;2.10;;
20855;SDS011;63058;49.424;8.420;2023-12-28T02:38:45;7.00;;;2.60;;
20855;SDS011;63058;49.424;8.420;2023-12-28T02:41:13;4.15;;;2.20;;
20855;SDS011;63058;49.424;8.420;2023-12-28T02:43:46;4.00;;;2.35;;
20855;SDS011;63058;49.424;8.420;2023-12-28T02:46:15;4.50;;;2.67;;
20855;SDS011;63058;49.424;8.420;2023-12-28T02:48:47;4.25;;;2.78;;
20855;SDS011;63058;49.424;8.420;2023-12-28T02:51:22;3.20;;;2.58;;
20855;SDS011;63058;49.424;8.420;2023-12-28T02:53:47;4.30;;;2.88;;
20855;SDS011;63058;49.424;8.420;2023-12-28T02:56:22;3.63;;;2.17;;
20855;SDS011;63058;49.424;8.420;2023-12-28T02:58:47;2.60;;;1.88;;
20855;SDS011;63058;49.424;8.420;2023-12-28T03:01:40;3.22;;;2.33;;
20855;SDS011;63058;49.424;8.420;2023-12-28T03:04:09;5.47;;;2.70;;
20855;SDS011;63058;49.424;8.420;2023-12-28T03:06:47;4.90;;;2.58;;
20855;SDS011;63058;49.424;8.420;2023-12-28T03:09:22;3.60;;;2.30;;
20855;SDS011;63058;49.424;8.420;2023-12-28T03:11:53;3.33;;;2.17;;
20855;SDS011;63058;49.424;8.420;2023-12-28T03:14:31;3.17;;;2.38;;
20855;SDS011;63058;49.424;8.420;2023-12-28T03:17:09;4.28;;;2.42;;
20855;SDS011;63058;49.424;8.420;2023-12-28T03:19:40;5.88;;;2.45;;
20855;SDS011;63058;49.424;8.420;2023-12-28T03:22:12;3.35;;;2.40;;
20855;SDS011;63058;49.424;8.420;2023-12-28T03:24:47;5.68;;;2.40;;
20855;SDS011;63058;49.424;8.420;2023-12-28T03:27:36;2.80;;;2.20;;
20855;SDS011;63058;49.424;8.420;2023-12-28T03:30:15;4.10;;;2.47;;
20855;SDS011;63058;49.424;8.420;2023-12-28T03:32:41;4.53;;;2.42;;
20855;SDS011;63058;49.424;8.420;2023-12-28T03:35:09;3.10;;;2.10;;
20855;SDS011;63058;49.424;8.420;2023-12-28T03:37:36;3.80;;;2.13;;
20855;SDS011;63058;49.424;8.420;2023-12-28T03:40:01;4.07;;;2.45;;
20855;SDS011;63058;49.424;8.420;2023-12-28T03:42:30;3.20;;;2.30;;
20855;SDS011;63058;49.424;8.420;2023-12-28T03:45:06;3.13;;;1.90;;
20855;SDS011;63058;49.424;8.420;2023-12-28T03:50:14;2.92;;;2.30;;
20855;SDS011;63058;49.424;8.420;2023-12-28T03:52:45;3.80;;;2.00;;
20855;SDS011;63058;49.424;8.420;2023-12-28T03:55:20;4.38;;;2.53;;
20855;SDS011;63058;49.424;8.420;2023-12-28T03:57:46;3.40;;;2.33;;
20855;SDS011;63058;49.424;8.420;2023-12-28T04:00:12;3.72;;;2.58;;
20855;SDS011;63058;49.424;8.420;2023-12-28T04:02:51;3.50;;;2.30;;
20855;SDS011;63058;49.424;8.420;2023-12-28T04:05:20;4.00;;;2.10;;
20855;SDS011;63058;49.424;8.420;2023-12-28T04:07:52;4.40;;;2.22;;
20855;SDS011;63058;49.424;8.420;2023-12-28T04:10:32;2.17;;;1.80;;
20855;SDS011;63058;49.424;8.420;2023-12-28T04:13:07;4.07;;;2.28;;
20855;SDS011;63058;49.424;8.420;2023-12-28T04:15:42;5.22;;;2.05;;
20855;SDS011;63058;49.424;8.420;2023-12-28T04:18:13;3.40;;;2.28;;
20855;SDS011;63058;49.424;8.420;2023-12-28T04:20:53;2.05;;;1.60;;
20855;SDS011;63058;49.424;8.420;2023-12-28T04:23:32;2.45;;;1.83;;
20855;SDS011;63058;49.424;8.420;2023-12-28T04:26:01;3.15;;;1.90;;
20855;SDS011;63058;49.424;8.420;2023-12-28T04:28:29;3.38;;;1.70;;
20855;SDS011;63058;49.424;8.420;2023-12-28T04:31:19;3.72;;;1.63;;
20855;SDS011;63058;49.424;8.420;2023-12-28T04:33:50;3.33;;;1.90;;
20855;SDS011;63058;49.424;8.420;2023-12-28T04:36:18;2.65;;;2.05;;
20855;SDS011;63058;49.424;8.420;2023-12-28T04:38:53;2.13;;;1.60;;
20855;SDS011;63058;49.424;8.420;2023-12-28T04:41:25;2.15;;;1.67;;
20855;SDS011;63058;49.424;8.420;2023-12-28T04:44:02;2.28;;;1.70;;
20855;SDS011;63058;49.424;8.420;2023-12-28T04:46:42;2.15;;;1.55;;
20855;SDS011;63058;49.424;8.420;2023-12-28T04:49:13;2.80;;;1.67;;
20855;SDS011;63058;49.424;8.420;2023-12-28T04:57:12;2.65;;;1.67;;
20855;SDS011;63058;49.424;8.420;2023-12-28T05:00:04;2.58;;;1.60;;
20855;SDS011;63058;49.424;8.420;2023-12-28T05:05:27;2.13;;;1.35;;
20855;SDS011;63058;49.424;8.420;2023-12-28T05:08:05;2.10;;;1.63;;
20855;SDS011;63058;49.424;8.420;2023-12-28T05:10:36;2.05;;;1.55;;
20855;SDS011;63058;49.424;8.420;2023-12-28T05:13:11;3.42;;;1.55;;
20855;SDS011;63058;49.424;8.420;2023-12-28T05:15:51;3.40;;;1.60;;
20855;SDS011;63058;49.424;8.420;2023-12-28T05:18:17;2.95;;;1.60;;
20855;SDS011;63058;49.424;8.420;2023-12-28T05:20:48;2.70;;;1.40;;
20855;SDS011;63058;49.424;8.420;2023-12-28T05:23:23;1.85;;;1.50;;
20855;SDS011;63058;49.424;8.420;2023-12-28T05:26:17;3.20;;;1.70;;
20855;SDS011;63058;49.424;8.420;2023-12-28T05:28:48;2.22;;;1.75;;
20855;SDS011;63058;49.424;8.420;2023-12-28T05:31:26;2.42;;;1.73;;
20855;SDS011;63058;49.424;8.420;2023-12-28T05:33:51;3.15;;;1.88;;
20855;SDS011;63058;49.424;8.420;2023-12-28T05:36:26;2.35;;;1.50;;
20855;SDS011;63058;49.424;8.420;2023-12-28T05:39:11;1.60;;;1.40;;
20855;SDS011;63058;49.424;8.420;2023-12-28T05:41:39;3.13;;;1.52;;
20855;SDS011;63058;49.424;8.420;2023-12-28T05:44:05;2.75;;;1.38;;
20855;SDS011;63058;49.424;8.420;2023-12-28T05:46:43;1.88;;;1.40;;
20855;SDS011;63058;49.424;8.420;2023-12-28T05:49:21;1.40;;;1.20;;
20855;SDS011;63058;49.424;8.420;2023-12-28T05:51:50;3.25;;;1.50;;
20855;SDS011;63058;49.424;8.420;2023-12-28T05:54:48;3.15;;;1.75;;
20855;SDS011;63058;49.424;8.420;2023-12-28T05:57:16;3.28;;;1.80;;
20855;SDS011;63058;49.424;8.420;2023-12-28T05:59:57;2.80;;;1.50;;
20855;SDS011;63058;49.424;8.420;2023-12-28T06:02:23;2.83;;;1.67;;
20855;SDS011;63058;49.424;8.420;2023-12-28T06:04:51;2.63;;;1.80;;
20855;SDS011;63058;49.424;8.420;2023-12-28T06:07:17;4.32;;;1.75;;
20855;SDS011;63058;49.424;8.420;2023-12-28T06:10:15;2.83;;;1.35;;
20855;SDS011;63058;49.424;8.420;2023-12-28T06:13:07;2.03;;;1.40;;
20855;SDS011;63058;49.424;8.420;2023-12-28T06:15:45;2.70;;;1.52;;
20855;SDS011;63058;49.424;8.420;2023-12-28T06:18:19;2.40;;;1.40;;
20855;SDS011;63058;49.424;8.420;2023-12-28T06:21:05;2.00;;;1.50;;
20855;SDS011;63058;49.424;8.420;2023-12-28T06:23:49;2.40;;;1.38;;
20855;SDS011;63058;49.424;8.420;2023-12-28T06:26:33;1.80;;;1.30;;
20855;SDS011;63058;49.424;8.420;2023-12-28T06:32:10;2.83;;;1.20;;
20855;SDS011;63058;49.424;8.420;2023-12-28T06:34:42;3.50;;;1.70;;
20855;SDS011;63058;49.424;8.420;2023-12-28T06:37:24;2.17;;;1.27;;
20855;SDS011;63058;49.424;8.420;2023-12-28T06:39:56;3.72;;;1.75;;
20855;SDS011;63058;49.424;8.420;2023-12-28T06:42:22;1.65;;;1.27;;
20855;SDS011;63058;49.424;8.420;2023-12-28T06:45:24;3.42;;;1.25;;
20855;SDS011;63058;49.424;8.420;2023-12-28T06:47:47;2.72;;;1.55;;
20855;SDS011;63058;49.424;8.420;2023-12-28T06:50:17;1.80;;;1.55;;
20855;SDS011;63058;49.424;8.420;2023-12-28T06:53:00;2.13;;;1.27;;
20855;SDS011;63058;49.424;8.420;2023-12-28T06:55:29;2.42;;;1.50;;
20855;SDS011;63058;49.424;8.420;2023-12-28T06:58:04;1.83;;;1.33;;
20855;SDS011;63058;49.424;8.420;2023-12-28T07:00:32;2.55;;;1.58;;
20855;SDS011;63058;49.424;8.420;2023-12-28T07:03:13;2.53;;;1.35;;
20855;SDS011;63058;49.424;8.420;2023-12-28T07:06:00;2.55;;;1.52;;
20855;SDS011;63058;49.424;8.420;2023-12-28T07:08:28;1.65;;;1.23;;
20855;SDS011;63058;49.424;8.420;2023-12-28T07:10:53;2.97;;;1.30;;
20855;SDS011;63058;49.424;8.420;2023-12-28T07:13:22;2.10;;;1.20;;
20855;SDS011;63058;49.424;8.420;2023-12-28T07:15:48;3.15;;;1.40;;
20855;SDS011;63058;49.424;8.420;2023-12-28T07:18:16;2.63;;;1.27;;
20855;SDS011;63058;49.424;8.420;2023-12-28T07:20:47;2.75;;;1.48;;
20855;SDS011;63058;49.424;8.420;2023-12-28T07:23:14;2.05;;;1.30;;
20855;SDS011;63058;49.424;8.420;2023-12-28T07:25:45;3.28;;;1.60;;
20855;SDS011;63058;49.424;8.420;2023-12-28T07:28:10;1.83;;;1.38;;
20855;SDS011;63058;49.424;8.420;2023-12-28T07:30:42;2.63;;;1.20;;
20855;SDS011;63058;49.424;8.420;2023-12-28T07:33:13;4.07;;;1.50;;
20855;SDS011;63058;49.424;8.420;2023-12-28T07:35:48;2.15;;;1.38;;
20855;SDS011;63058;49.424;8.420;2023-12-28T07:38:20;3.92;;;1.10;;
20855;SDS011;63058;49.424;8.420;2023-12-28T07:40:48;3.83;;;1.50;;
20855;SDS011;63058;49.424;8.420;2023-12-28T07:45:59;1.63;;;1.35;;
20855;SDS011;63058;49.424;8.420;2023-12-28T07:48:27;3.05;;;1.58;;
20855;SDS011;63058;49.424;8.420;2023-12-28T07:51:15;2.40;;;1.42;;
20855;SDS011;63058;49.424;8.420;2023-12-28T07:53:43;1.90;;;1.10;;
20855;SDS011;63058;49.424;8.420;2023-12-28T07:56:30;2.53;;;1.15;;
20855;SDS011;63058;49.424;8.420;2023-12-28T07:58:59;2.88;;;1.42;;
20855;SDS011;63058;49.424;8.420;2023-12-28T08:02:00;2.00;;;1.15;;
20855;SDS011;63058;49.424;8.420;2023-12-28T08:04:28;1.95;;;1.30;;
20855;SDS011;63058;49.424;8.420;2023-12-28T08:07:03;3.47;;;1.30;;
20855;SDS011;63058;49.424;8.420;2023-12-28T08:09:29;2.30;;;1.38;;
20855;SDS011;63058;49.424;8.420;2023-12-28T08:12:01;2.55;;;1.50;;
20855;SDS011;63058;49.424;8.420;2023-12-28T08:15:05;2.85;;;1.48;;
20855;SDS011;63058;49.424;8.420;2023-12-28T08:23:24;2.58;;;1.65;;
20855;SDS011;63058;49.424;8.420;2023-12-28T08:26:04;2.80;;;1.25;;
20855;SDS011;63058;49.424;8.420;2023-12-28T08:28:52;2.75;;;1.42;;
20855;SDS011;63058;49.424;8.420;2023-12-28T08:31:24;3.28;;;1.75;;
20855;SDS011;63058;49.424;8.420;2023-12-28T08:33:50;2.67;;;1.63;;
20855;SDS011;63058;49.424;8.420;2023-12-28T08:36:31;1.90;;;1.50;;
20855;SDS011;63058;49.424;8.420;2023-12-28T08:39:02;2.20;;;1.63;;
20855;SDS011;63058;49.424;8.420;2023-12-28T08:41:55;3.25;;;1.80;;
20855;SDS011;63058;49.424;8.420;2023-12-28T08:44:47;2.30;;;1.55;;
20855;SDS011;63058;49.424;8.420;2023-12-28T08:47:18;2.88;;;1.63;;
20855;SDS011;63058;49.424;8.420;2023-12-28T08:49:46;2.45;;;1.65;;
20855;SDS011;63058;49.424;8.420;2023-12-28T08:52:15;1.85;;;1.38;;
20855;SDS011;63058;49.424;8.420;2023-12-28T08:54:43;2.65;;;1.70;;
20855;SDS011;63058;49.424;8.420;2023-12-28T08:57:15;2.33;;;1.83;;
20855;SDS011;63058;49.424;8.420;2023-12-28T08:59:46;2.85;;;2.03;;
20855;SDS011;63058;49.424;8.420;2023-12-28T09:02:12;2.80;;;2.10;;
20855;SDS011;63058;49.424;8.420;2023-12-28T09:04:41;4.78;;;1.90;;
20855;SDS011;63058;49.424;8.420;2023-12-28T09:07:09;2.78;;;1.88;;
20855;SDS011;63058;49.424;8.420;2023-12-28T09:09:38;3.60;;;2.15;;
20855;SDS011;63058;49.424;8.420;2023-12-28T09:12:04;3.83;;;2.03;;
20855;SDS011;63058;49.424;8.420;2023-12-28T09:14:30;3.17;;;1.90;;
20855;SDS011;63058;49.424;8.420;2023-12-28T09:17:07;2.10;;;1.48;;
20855;SDS011;63058;49.424;8.420;2023-12-28T09:19:38;2.35;;;1.48;;
20855;SDS011;63058;49.424;8.420;2023-12-28T09:22:07;2.13;;;1.77;;
20855;SDS011;63058;49.424;8.420;2023-12-28T09:24:37;1.88;;;1.30;;
20855;SDS011;63058;49.424;8.420;2023-12-28T09:27:06;1.80;;;1.50;;
20855;SDS011;63058;49.424;8.420;2023-12-28T09:29:31;1.92;;;1.40;;
20855;SDS011;63058;49.424;8.420;2023-12-28T09:32:00;1.75;;;1.20;;
20855;SDS011;63058;49.424;8.420;2023-12-28T09:34:27;3.15;;;1.52;;
20855;SDS011;63058;49.424;8.420;2023-12-28T09:36:55;1.63;;;1.10;;
20855;SDS011;63058;49.424;8.420;2023-12-28T09:39:28;1.77;;;1.40;;
20855;SDS011;63058;49.424;8.420;2023-12-28T09:41:58;1.77;;;1.40;;
20855;SDS011;63058;49.424;8.420;2023-12-28T09:44:39;2.28;;;1.25;;
20855;SDS011;63058;49.424;8.420;2023-12-28T09:47:10;4.20;;;1.60;;
20855;SDS011;63058;49.424;8.420;2023-12-28T09:49:38;2.35;;;1.40;;
20855;SDS011;63058;49.424;8.420;2023-12-28T09:52:05;1.95;;;1.48;;
20855;SDS011;63058;49.424;8.420;2023-12-28T09:54:32;2.60;;;1.40;;
20855;SDS011;63058;49.424;8.420;2023-12-28T09:56:57;2.30;;;1.25;;
20855;SDS011;63058;49.424;8.420;2023-12-28T09:59:27;2.40;;;1.55;;
20855;SDS011;63058;49.424;8.420;2023-12-28T10:01:56;2.15;;;1.48;;
20855;SDS011;63058;49.424;8.420;2023-12-28T10:04:23;3.05;;;1.40;;
20855;SDS011;63058;49.424;8.420;2023-12-28T10:06:53;2.22;;;1.20;;
20855;SDS011;63058;49.424;8.420;2023-12-28T10:09:19;2.50;;;1.38;;
20855;SDS011;63058;49.424;8.420;2023-12-28T10:11:48;1.25;;;1.15;;
20855;SDS011;63058;49.424;8.420;2023-12-28T10:14:18;2.65;;;1.55;;
20855;SDS011;63058;49.424;8.420;2023-12-28T10:16:48;1.88;;;1.35;;
20855;SDS011;63058;49.424;8.420;2023-12-28T10:19:13;2.60;;;1.60;;
20855;SDS011;63058;49.424;8.420;2023-12-28T10:21:55;2.47;;;1.35;;
20855;SDS011;63058;49.424;8.420;2023-12-28T10:24:27;1.75;;;1.23;;
20855;SDS011;63058;49.424;8.420;2023-12-28T10:26:59;1.40;;;1.20;;
20855;SDS011;63058;49.424;8.420;2023-12-28T10:29:25;1.85;;;1.40;;
20855;SDS011;63058;49.424;8.420;2023-12-28T10:31:54;2.58;;;1.40;;
20855;SDS011;63058;49.424;8.420;2023-12-28T10:34:19;1.77;;;1.30;;
20855;SDS011;63058;49.424;8.420;2023-12-28T10:36:45;1.75;;;1.35;;
20855;SDS011;63058;49.424;8.420;2023-12-28T10:39:16;1.60;;;1.30;;
20855;SDS011;63058;49.424;8.420;2023-12-28T10:41:50;2.15;;;1.40;;
20855;SDS011;63058;49.424;8.420;2023-12-28T10:44:20;2.20;;;1.33;;
20855;SDS011;63058;49.424;8.420;2023-12-28T10:46:57;2.55;;;1.40;;
20855;SDS011;63058;49.424;8.420;2023-12-28T10:49:30;2.15;;;1.30;;
20855;SDS011;63058;49.424;8.420;2023-12-28T10:52:06;2.28;;;1.40;;
20855;SDS011;63058;49.424;8.420;2023-12-28T10:54:42;2.28;;;1.55;;
20855;SDS011;63058;49.424;8.420;2023-12-28T10:57:27;1.70;;;1.40;;
20855;SDS011;63058;49.424;8.420;2023-12-28T11:00:20;2.42;;;1.60;;
20855;SDS011;63058;49.424;8.420;2023-12-28T11:02:52;2.53;;;1.80;;
20855;SDS011;63058;49.424;8.420;2023-12-28T11:05:35;2.35;;;1.63;;
20855;SDS011;63058;49.424;8.420;2023-12-28T11:08:02;2.05;;;1.45;;
20855;SDS011;63058;49.424;8.420;2023-12-28T11:10:29;2.22;;;1.50;;
20855;SDS011;63058;49.424;8.420;2023-12-28T11:13:04;1.85;;;1.33;;
20855;SDS011;63058;49.424;8.420;2023-12-28T11:15:30;3.20;;;1.20;;
20855;SDS011;63058;49.424;8.420;2023-12-28T11:18:01;1.73;;;1.23;;
20855;SDS011;63058;49.424;8.420;2023-12-28T11:20:29;2.05;;;1.27;;
20855;SDS011;63058;49.424;8.420;2023-12-28T11:23:01;2.03;;;1.42;;
20855;SDS011;63058;49.424;8.420;2023-12-28T11:25:30;2.45;;;1.60;;
20855;SDS011;63058;49.424;8.420;2023-12-28T11:27:58;2.95;;;1.50;;
20855;SDS011;63058;49.424;8.420;2023-12-28T11:30:31;3.67;;;1.77;;
20855;SDS011;63058;49.424;8.420;2023-12-28T11:32:59;2.85;;;1.85;;
20855;SDS011;63058;49.424;8.420;2023-12-28T11:35:40;3.35;;;1.50;;
20855;SDS011;63058;49.424;8.420;2023-12-28T11:38:06;3.63;;;1.98;;
20855;SDS011;63058;49.424;8.420;2023-12-28T11:40:40;2.70;;;1.70;;
20855;SDS011;63058;49.424;8.420;2023-12-28T11:43:19;2.50;;;1.80;;
20855;SDS011;63058;49.424;8.420;2023-12-28T11:46:01;2.88;;;1.52;;
20855;SDS011;63058;49.424;8.420;2023-12-28T11:48:39;1.80;;;1.27;;
20855;SDS011;63058;49.424;8.420;2023-12-28T11:51:04;2.15;;;1.38;;
20855;SDS011;63058;49.424;8.420;2023-12-28T11:57:00;1.63;;;1.20;;
20855;SDS011;63058;49.424;8.420;2023-12-28T11:59:29;1.80;;;1.50;;
20855;SDS011;63058;49.424;8.420;2023-12-28T12:02:00;1.83;;;1.45;;
20855;SDS011;63058;49.424;8.420;2023-12-28T12:04:27;1.63;;;1.20;;
20855;SDS011;63058;49.424;8.420;2023-12-28T12:06:56;2.20;;;1.38;;
20855;SDS011;63058;49.424;8.420;2023-12-28T12:09:26;3.13;;;1.42;;
20855;SDS011;63058;49.424;8.420;2023-12-28T12:11:59;2.08;;;1.40;;
20855;SDS011;63058;49.424;8.420;2023-12-28T12:14:29;1.67;;;1.25;;
20855;SDS011;63058;49.424;8.420;2023-12-28T12:17:24;1.98;;;1.10;;
20855;SDS011;63058;49.424;8.420;2023-12-28T12:20:02;2.63;;;1.33;;
20855;SDS011;63058;49.424;8.420;2023-12-28T12:22:54;2.60;;;1.70;;
20855;SDS011;63058;49.424;8.420;2023-12-28T12:28:16;2.92;;;1.90;;
20855;SDS011;63058;49.424;8.420;2023-12-28T12:30:54;3.95;;;2.00;;
20855;SDS011;63058;49.424;8.420;2023-12-28T12:36:12;3.03;;;1.60;;
20855;SDS011;63058;49.424;8.420;2023-12-28T12:38:44;2.83;;;1.70;;
20855;SDS011;63058;49.424;8.420;2023-12-28T12:41:16;2.47;;;1.88;;
20855;SDS011;63058;49.424;8.420;2023-12-28T12:43:42;2.95;;;1.70;;
20855;SDS011;63058;49.424;8.420;2023-12-28T12:46:10;1.80;;;1.50;;
20855;SDS011;63058;49.424;8.420;2023-12-28T12:51:27;1.88;;;1.35;;
20855;SDS011;63058;49.424;8.420;2023-12-28T12:54:01;2.00;;;1.40;;
20855;SDS011;63058;49.424;8.420;2023-12-28T12:56:36;2.00;;;1.55;;
20855;SDS011;63058;49.424;8.420;2023-12-28T12:59:10;2.70;;;1.50;;
20855;SDS011;63058;49.424;8.420;2023-12-28T13:01:53;2.00;;;1.55;;
20855;SDS011;63058;49.424;8.420;2023-12-28T13:04:26;1.98;;;1.35;;
20855;SDS011;63058;49.424;8.420;2023-12-28T13:06:55;2.00;;;1.52;;
20855;SDS011;63058;49.424;8.420;2023-12-28T13:09:23;2.83;;;1.70;;
20855;SDS011;63058;49.424;8.420;2023-12-28T13:11:55;3.53;;;1.60;;
20855;SDS011;63058;49.424;8.420;2023-12-28T13:14:21;2.75;;;1.67;;
20855;SDS011;63058;49.424;8.420;2023-12-28T13:16:47;2.90;;;1.58;;
20855;SDS011;63058;49.424;8.420;2023-12-28T13:19:19;2.83;;;1.48;;
20855;SDS011;63058;49.424;8.420;2023-12-28T13:21:46;2.30;;;1.50;;
20855;SDS011;63058;49.424;8.420;2023-12-28T13:24:17;3.13;;;1.67;;
20855;SDS011;63058;49.424;8.420;2023-12-28T13:26:43;1.98;;;1.52;;
20855;SDS011;63058;49.424;8.420;2023-12-28T13:29:11;2.28;;;1.63;;
20855;SDS011;63058;49.424;8.420;2023-12-28T13:31:39;2.03;;;1.33;;
20855;SDS011;63058;49.424;8.420;2023-12-28T13:34:09;2.50;;;1.50;;
20855;SDS011;63058;49.424;8.420;2023-12-28T13:36:39;1.92;;;1.50;;
20855;SDS011;63058;49.424;8.420;2023-12-28T13:41:53;1.70;;;1.15;;
20855;SDS011;63058;49.424;8.420;2023-12-28T13:44:25;2.20;;;1.55;;
20855;SDS011;63058;49.424;8.420;2023-12-28T13:46:50;1.85;;;1.52;;
20855;SDS011;63058;49.424;8.420;2023-12-28T13:49:16;2.20;;;1.33;;
20855;SDS011;63058;49.424;8.420;2023-12-28T13:51:51;4.53;;;1.52;;
20855;SDS011;63058;49.424;8.420;2023-12-28T13:54:17;2.28;;;1.30;;
20855;SDS011;63058;49.424;8.420;2023-12-28T13:56:50;1.80;;;1.35;;
20855;SDS011;63058;49.424;8.420;2023-12-28T13:59:21;1.92;;;1.40;;
20855;SDS011;63058;49.424;8.420;2023-12-28T14:01:47;2.42;;;1.40;;
20855;SDS011;63058;49.424;8.420;2023-12-28T14:04:13;2.00;;;1.40;;
20855;SDS011;63058;49.424;8.420;2023-12-28T14:06:42;1.70;;;1.50;;
20855;SDS011;63058;49.424;8.420;2023-12-28T14:09:14;3.97;;;1.70;;
20855;SDS011;63058;49.424;8.420;2023-12-28T14:11:44;2.85;;;1.80;;
20855;SDS011;63058;49.424;8.420;2023-12-28T14:14:12;3.50;;;1.77;;
20855;SDS011;63058;49.424;8.420;2023-12-28T14:16:38;3.15;;;1.77;;
20855;SDS011;63058;49.424;8.420;2023-12-28T14:19:06;2.38;;;1.60;;
20855;SDS011;63058;49.424;8.420;2023-12-28T14:21:47;2.70;;;1.80;;
20855;SDS011;63058;49.424;8.420;2023-12-28T14:24:16;2.58;;;1.95;;
20855;SDS011;63058;49.424;8.420;2023-12-28T14:26:42;6.07;;;1.92;;
20855;SDS011;63058;49.424;8.420;2023-12-28T14:29:26;2.83;;;1.85;;
20855;SDS011;63058;49.424;8.420;2023-12-28T14:31:55;1.95;;;1.52;;
20855;SDS011;63058;49.424;8.420;2023-12-28T14:34:24;2.30;;;1.55;;
20855;SDS011;63058;49.424;8.420;2023-12-28T14:36:52;2.58;;;1.73;;
20855;SDS011;63058;49.424;8.420;2023-12-28T14:39:19;2.03;;;1.52;;
20855;SDS011;63058;49.424;8.420;2023-12-28T14:41:57;2.47;;;1.63;;
20855;SDS011;63058;49.424;8.420;2023-12-28T14:47:36;2.42;;;1.63;;
20855;SDS011;63058;49.424;8.420;2023-12-28T14:50:02;4.05;;;1.85;;
20855;SDS011;63058;49.424;8.420;2023-12-28T14:52:30;2.92;;;1.80;;
20855;SDS011;63058;49.424;8.420;2023-12-28T14:54:56;3.28;;;1.70;;
20855;SDS011;63058;49.424;8.420;2023-12-28T14:57:22;2.58;;;1.63;;
20855;SDS011;63058;49.424;8.420;2023-12-28T14:59:47;2.08;;;1.50;;
20855;SDS011;63058;49.424;8.420;2023-12-28T15:02:13;2.65;;;1.60;;
20855;SDS011;63058;49.424;8.420;2023-12-28T15:04:39;2.60;;;1.73;;
20855;SDS011;63058;49.424;8.420;2023-12-28T15:07:05;2.13;;;1.40;;
20855;SDS011;63058;49.424;8.420;2023-12-28T15:09:31;2.20;;;1.67;;
20855;SDS011;63058;49.424;8.420;2023-12-28T15:11:57;1.80;;;1.50;;
20855;SDS011;63058;49.424;8.420;2023-12-28T15:14:24;2.25;;;1.52;;
20855;SDS011;63058;49.424;8.420;2023-12-28T15:16:50;1.70;;;1.50;;
20855;SDS011;63058;49.424;8.420;2023-12-28T15:19:16;2.60;;;1.65;;
20855;SDS011;63058;49.424;8.420;2023-12-28T15:21:42;1.73;;;1.48;;
20855;SDS011;63058;49.424;8.420;2023-12-28T15:24:08;2.38;;;1.65;;
20855;SDS011;63058;49.424;8.420;2023-12-28T15:26:37;2.08;;;1.67;;
20855;SDS011;63058;49.424;8.420;2023-12-28T15:29:03;2.55;;;1.63;;
20855;SDS011;63058;49.424;8.420;2023-12-28T15:31:29;2.75;;;1.58;;
20855;SDS011;63058;49.424;8.420;2023-12-28T15:33:55;2.80;;;1.83;;
20855;SDS011;63058;49.424;8.420;2023-12-28T15:36:21;2.25;;;1.65;;
20855;SDS011;63058;49.424;8.420;2023-12-28T15:38:47;2.53;;;1.90;;
20855;SDS011;63058;49.424;8.420;2023-12-28T15:41:13;3.00;;;1.63;;
20855;SDS011;63058;49.424;8.420;2023-12-28T15:43:38;2.78;;;1.90;;
20855;SDS011;63058;49.424;8.420;2023-12-28T15:46:04;2.72;;;1.85;;
20855;SDS011;63058;49.424;8.420;2023-12-28T15:48:31;2.25;;;1.77;;
20855;SDS011;63058;49.424;8.420;2023-12-28T15:50:56;3.72;;;2.15;;
20855;SDS011;63058;49.424;8.420;2023-12-28T15:53:22;3.53;;;1.60;;
20855;SDS011;63058;49.424;8.420;2023-12-28T15:55:48;2.63;;;1.85;;
20855;SDS011;63058;49.424;8.420;2023-12-28T15:58:13;4.07;;;2.03;;
20855;SDS011;63058;49.424;8.420;2023-12-28T16:00:39;3.35;;;1.75;;
20855;SDS011;63058;49.424;8.420;2023-12-28T16:03:04;3.03;;;1.77;;